Terminal Aerodrome Forecast
Issued by NWS

Home | Current Version | Previous Version | Text Only | Print | Product List | Glossary On
Versions: 1 2 3 4 5 6 7 8 9 10 11 12 13 14 15 16 17 18 19 20 21 22 23 24 25 26 27 28 29 30 31 32 33 34 35 36 37 38 39 40
000
FTUS45 KBOU 301730
TAFAPA
TAF
KAPA 301730Z 3018/3118 VRB03KT P6SM FEW070
     FM302000 06006KT P6SM SCT070 SCT120
     FM310000 12008KT P6SM SCT070 BKN120
     FM310600 20006KT P6SM SCT120=

USA.gov is the U.S. government's official web portal to all federal, state and local government web resources and services.